createdAt,value
2023-03-18T00:01:56.425Z,25.75
2023-03-18T00:05:13.922Z,29.68
2023-03-18T00:08:30.095Z,28.60
2023-03-18T00:11:46.952Z,26.65
2023-03-18T00:15:03.164Z,26.63
2023-03-18T00:18:19.508Z,26.95
2023-03-18T00:21:35.779Z,28.53
2023-03-18T00:24:53.367Z,29.05
2023-03-18T00:28:10.065Z,25.93
2023-03-18T00:31:26.553Z,30.40
2023-03-18T00:34:42.859Z,31.55
2023-03-18T00:37:59.266Z,27.10
2023-03-18T00:41:18.740Z,26.75
2023-03-18T00:44:35.276Z,29.30
2023-03-18T00:47:52.441Z,31.98
2023-03-18T00:51:12.319Z,28.13
2023-03-18T00:54:29.160Z,29.90
2023-03-18T00:57:46.227Z,30.58
2023-03-18T01:01:02.247Z,30.75
2023-03-18T01:04:18.398Z,30.03
2023-03-18T01:07:37.228Z,31.55
2023-03-18T01:10:53.430Z,26.50
2023-03-18T01:14:10.105Z,26.75
2023-03-18T01:17:26.420Z,27.23
2023-03-18T01:20:43.317Z,24.45
2023-03-18T01:24:01.217Z,28.08
2023-03-18T01:27:19.306Z,26.30
2023-03-18T01:30:36.256Z,26.58
2023-03-18T01:33:53.284Z,27.68
2023-03-18T01:37:10.195Z,27.73
2023-03-18T01:40:29.421Z,28.25
2023-03-18T01:43:49.400Z,26.73
2023-03-18T01:47:05.564Z,24.75
2023-03-18T01:50:25.761Z,28.78
2023-03-18T01:53:47.161Z,27.75
2023-03-18T01:57:04.366Z,24.63
2023-03-18T02:00:24.182Z,26.55
2023-03-18T02:03:41.010Z,27.55
2023-03-18T02:06:57.719Z,25.93
2023-03-18T02:10:19.253Z,25.78
2023-03-18T02:13:38.041Z,27.13
2023-03-18T02:16:59.603Z,29.23
2023-03-18T02:20:25.308Z,25.35
2023-03-18T02:23:48.290Z,26.35
2023-03-18T02:27:08.886Z,26.48
2023-03-18T02:30:32.431Z,25.23
2023-03-18T02:33:50.573Z,26.88
2023-03-18T02:37:08.635Z,27.80
2023-03-18T02:40:30.160Z,25.75
2023-03-18T02:43:46.884Z,25.90
2023-03-18T02:47:06.795Z,27.60
2023-03-18T02:50:22.604Z,28.85
2023-03-18T02:53:38.984Z,30.35
2023-03-18T02:56:55.354Z,30.53
2023-03-18T03:00:14.383Z,28.15
2023-03-18T03:03:32.003Z,30.10
2023-03-18T03:06:48.981Z,33.68
2023-03-18T03:10:06.435Z,31.53
2023-03-18T03:13:22.946Z,27.28
2023-03-18T03:16:43.165Z,29.65
2023-03-18T03:19:59.174Z,29.18
2023-03-18T03:23:18.292Z,29.43
2023-03-18T03:26:37.202Z,29.98
2023-03-18T03:29:54.906Z,27.13
2023-03-18T03:33:12.103Z,27.73
2023-03-18T03:36:29.013Z,24.40
2023-03-18T03:39:45.408Z,26.30
2023-03-18T03:43:01.915Z,28.58
2023-03-18T03:46:20.029Z,27.45
2023-03-18T03:49:36.150Z,25.53
2023-03-18T03:52:53.721Z,27.73
2023-03-18T03:56:12.116Z,25.38
2023-03-18T03:59:28.960Z,27.70
2023-03-18T04:03:05.602Z,25.38
2023-03-18T04:06:21.675Z,27.35
2023-03-18T04:09:39.772Z,29.58
2023-03-18T04:12:56.855Z,26.95
2023-03-18T04:16:15.225Z,23.65
2023-03-18T04:19:31.613Z,25.57
2023-03-18T04:22:47.842Z,27.93
2023-03-18T04:26:06.129Z,28.68
2023-03-18T04:29:23.527Z,26.30
2023-03-18T04:32:40.148Z,26.65
2023-03-18T04:35:57.258Z,24.93
2023-03-18T04:39:14.116Z,27.48
2023-03-18T04:42:30.449Z,29.10
2023-03-18T04:45:47.037Z,28.30
2023-03-18T04:49:03.753Z,30.28
2023-03-18T04:52:21.071Z,32.70
2023-03-18T04:55:37.706Z,31.85
2023-03-18T04:58:55.667Z,29.18
2023-03-18T05:02:13.665Z,28.03
2023-03-18T05:05:30.688Z,31.03
2023-03-18T05:08:47.409Z,25.90
2023-03-18T05:12:03.689Z,27.65
2023-03-18T05:15:24.269Z,23.98
2023-03-18T05:18:42.141Z,30.68
2023-03-18T05:21:58.415Z,32.40
2023-03-18T05:25:16.927Z,24.85
2023-03-18T05:28:34.847Z,27.50
2023-03-18T05:31:52.583Z,22.45
2023-03-18T05:35:09.910Z,22.30
2023-03-18T05:38:27.609Z,24.45
2023-03-18T05:41:44.493Z,21.23
2023-03-18T05:45:02.968Z,22.88
2023-03-18T05:48:19.771Z,22.65
2023-03-18T05:51:38.553Z,23.63
2023-03-18T05:54:56.438Z,23.90
2023-03-18T05:58:14.582Z,22.50
2023-03-18T06:01:31.614Z,22.88
2023-03-18T06:04:48.544Z,22.30
2023-03-18T06:08:05.175Z,22.73
2023-03-18T06:11:24.081Z,22.43
2023-03-18T06:14:40.430Z,22.90
2023-03-18T06:17:58.281Z,22.10
2023-03-18T06:21:16.175Z,22.75
2023-03-18T06:24:32.591Z,23.38
2023-03-18T06:27:48.758Z,20.18
2023-03-18T06:31:07.027Z,27.25
2023-03-18T06:34:23.418Z,24.78
2023-03-18T06:37:43.576Z,21.77
2023-03-18T06:41:02.850Z,20.55
2023-03-18T06:44:20.599Z,21.20
2023-03-18T06:47:37.907Z,24.25
2023-03-18T06:50:55.497Z,23.08
2023-03-18T06:57:27.949Z,21.08
2023-03-18T07:00:46.136Z,21.45
2023-03-18T07:04:04.031Z,18.68
2023-03-18T07:07:21.938Z,18.93
2023-03-18T07:10:40.389Z,18.88
2023-03-18T07:13:58.632Z,21.55
2023-03-18T07:17:21.196Z,18.53
2023-03-18T07:20:37.431Z,21.10
2023-03-18T07:23:55.565Z,20.48
2023-03-18T07:27:14.118Z,21.35
2023-03-18T07:30:31.294Z,16.83
2023-03-18T07:33:50.603Z,17.93
2023-03-18T07:37:07.880Z,18.55
2023-03-18T07:40:25.178Z,17.18
2023-03-18T07:43:44.394Z,17.80
2023-03-18T07:47:00.844Z,19.38
2023-03-18T07:50:21.809Z,15.93
2023-03-18T07:53:42.136Z,19.90
2023-03-18T07:56:58.931Z,16.00
2023-03-18T08:00:19.523Z,21.58
2023-03-18T08:03:37.942Z,15.75
2023-03-18T08:06:54.286Z,15.00
2023-03-18T08:10:12.702Z,16.88
2023-03-18T08:13:29.790Z,15.30
2023-03-18T08:16:46.412Z,15.80
2023-03-18T08:20:02.705Z,17.55
2023-03-18T08:23:20.165Z,16.73
2023-03-18T08:26:36.619Z,16.05
2023-03-18T08:29:53.198Z,12.65
2023-03-18T08:33:09.705Z,16.85
2023-03-18T08:36:29.598Z,15.13
2023-03-18T08:39:45.774Z,18.13
2023-03-18T08:43:02.408Z,15.78
2023-03-18T08:46:18.972Z,22.93
2023-03-18T08:49:35.632Z,17.78
2023-03-18T08:52:54.447Z,18.13
2023-03-18T08:56:15.417Z,17.88
2023-03-18T08:59:31.776Z,18.55
2023-03-18T09:02:48.626Z,14.58
2023-03-18T09:06:05.603Z,13.98
2023-03-18T09:09:26.301Z,15.60
2023-03-18T09:12:40.187Z,14.85
2023-03-18T09:15:56.493Z,15.38
2023-03-18T09:19:13.032Z,16.73
2023-03-18T09:22:29.610Z,14.23
2023-03-18T09:25:46.169Z,14.55
2023-03-18T09:29:05.253Z,14.85
2023-03-18T09:32:21.860Z,12.00
2023-03-18T09:35:38.660Z,15.23
2023-03-18T09:38:54.866Z,29.18
2023-03-18T09:42:24.548Z,14.43
2023-03-18T09:45:47.751Z,13.35
2023-03-18T09:49:32.174Z,14.33
2023-03-18T09:52:56.188Z,12.73
2023-03-18T09:56:13.386Z,14.10
2023-03-18T09:59:34.904Z,13.78
2023-03-18T10:02:55.345Z,14.45
2023-03-18T10:06:20.460Z,14.20
2023-03-18T10:09:40.319Z,14.23
2023-03-18T10:13:01.882Z,17.95
2023-03-18T10:16:25.120Z,16.33
2023-03-18T10:19:42.878Z,13.28
2023-03-18T10:23:12.300Z,12.45
2023-03-18T10:26:36.828Z,13.03
2023-03-18T10:29:59.270Z,11.70
2023-03-18T10:33:22.956Z,12.73
2023-03-18T10:36:47.528Z,13.83
2023-03-18T10:40:11.401Z,11.50
2023-03-18T10:43:31.243Z,13.73
2023-03-18T10:46:50.209Z,12.65
2023-03-18T10:53:32.503Z,12.65
2023-03-18T10:56:53.630Z,10.30
2023-03-18T11:00:12.019Z,12.53
2023-03-18T11:03:36.429Z,10.57
2023-03-18T11:06:58.538Z,11.18
2023-03-18T11:10:31.355Z,12.60
2023-03-18T11:13:53.951Z,14.45
2023-03-18T11:17:14.901Z,17.70
2023-03-18T11:20:41.946Z,13.08
2023-03-18T11:24:15.773Z,10.38
2023-03-18T11:27:46.817Z,9.83
2023-03-18T11:31:07.272Z,8.78
2023-03-18T11:34:28.645Z,9.18
2023-03-18T11:37:47.015Z,11.80
2023-03-18T11:41:13.944Z,12.73
2023-03-18T11:44:36.907Z,10.50
2023-03-18T11:47:54.553Z,13.15
2023-03-18T11:51:38.844Z,11.85
2023-03-18T11:55:31.618Z,11.33
2023-03-18T11:59:18.554Z,10.98
2023-03-18T12:02:58.665Z,10.08
2023-03-18T12:06:29.267Z,11.85
2023-03-18T12:09:50.587Z,11.03
2023-03-18T12:13:38.443Z,11.08
2023-03-18T12:17:09.859Z,24.88
2023-03-18T12:20:56.188Z,13.45
2023-03-18T12:24:40.804Z,11.30
2023-03-18T12:28:01.915Z,10.53
2023-03-18T12:31:54.361Z,11.18
2023-03-18T12:35:36.571Z,11.93
2023-03-18T12:39:47.091Z,13.75
2023-03-18T12:43:46.234Z,11.20
2023-03-18T12:47:10.943Z,11.55
2023-03-18T12:50:32.682Z,11.78
2023-03-18T12:53:55.461Z,11.10
2023-03-18T12:57:18.304Z,11.50
2023-03-18T13:00:39.150Z,10.35
2023-03-18T13:04:05.343Z,11.00
2023-03-18T13:07:27.123Z,9.25
2023-03-18T13:10:45.075Z,11.10
2023-03-18T13:14:06.515Z,9.75
2023-03-18T13:17:27.178Z,9.03
2023-03-18T13:20:46.275Z,10.40
2023-03-18T13:27:58.828Z,8.33
2023-03-18T13:31:28.610Z,7.83
2023-03-18T13:35:31.269Z,7.97
2023-03-18T13:39:34.679Z,7.05
2023-03-18T13:42:54.766Z,7.18
2023-03-18T13:46:18.300Z,9.38
2023-03-18T13:49:39.380Z,7.40
2023-03-18T13:52:58.734Z,8.18
2023-03-18T13:56:33.713Z,8.83
2023-03-18T13:59:57.162Z,7.83
2023-03-18T14:03:30.679Z,7.78
2023-03-18T14:07:02.286Z,64.00
2023-03-18T14:10:27.172Z,30.20
2023-03-18T14:13:45.848Z,9.33
2023-03-18T14:17:03.841Z,7.95
2023-03-18T14:20:36.834Z,11.18
2023-03-18T14:23:58.496Z,7.10
2023-03-18T14:27:26.959Z,9.55
2023-03-18T14:31:04.837Z,8.23
2023-03-18T14:34:43.847Z,8.85
2023-03-18T14:38:12.461Z,7.13
2023-03-18T14:41:34.172Z,5.78
2023-03-18T14:44:57.977Z,8.25
2023-03-18T14:48:22.244Z,7.50
2023-03-18T14:51:43.037Z,11.28
2023-03-18T14:55:02.481Z,7.10
2023-03-18T14:58:29.000Z,11.33
2023-03-18T15:01:51.438Z,10.15
2023-03-18T15:05:11.673Z,9.23
2023-03-18T15:08:46.830Z,11.43
2023-03-18T15:11:56.677Z,11.70
2023-03-18T15:15:25.243Z,11.50
2023-03-18T15:18:45.335Z,8.13
2023-03-18T15:22:08.753Z,16.40
2023-03-18T15:25:29.654Z,7.00
2023-03-18T15:28:45.905Z,38.63
2023-03-18T15:32:13.700Z,9.48
2023-03-18T15:41:00.637Z,10.08
2023-03-18T15:44:25.368Z,9.35
2023-03-18T15:47:43.236Z,7.80
2023-03-18T15:51:09.965Z,9.70
2023-03-18T15:54:31.585Z,6.55
2023-03-18T15:57:50.143Z,9.70
2023-03-18T16:01:07.449Z,6.93
2023-03-18T16:04:26.860Z,6.93
2023-03-18T16:07:42.948Z,6.58
2023-03-18T16:11:05.075Z,11.08
2023-03-18T16:14:26.737Z,36.55
2023-03-18T16:17:46.695Z,12.48
2023-03-18T16:21:03.289Z,7.50
2023-03-18T16:24:19.378Z,7.13
2023-03-18T16:27:42.749Z,7.78
2023-03-18T16:31:01.746Z,6.33
2023-03-18T16:34:24.015Z,8.23
2023-03-18T16:37:40.217Z,7.83
2023-03-18T16:40:56.848Z,8.75
2023-03-18T16:44:20.241Z,9.73
2023-03-18T16:47:37.739Z,11.55
2023-03-18T16:50:57.478Z,10.55
2023-03-18T16:54:27.196Z,14.53
2023-03-18T16:57:44.300Z,11.60
2023-03-18T17:01:00.811Z,11.80
2023-03-18T17:04:30.307Z,13.35
2023-03-18T17:07:46.551Z,13.23
2023-03-18T17:11:06.179Z,14.65
2023-03-18T17:14:35.773Z,18.50
2023-03-18T17:17:53.828Z,16.25
2023-03-18T17:21:10.274Z,24.88
2023-03-18T17:24:26.672Z,18.13
2023-03-18T17:27:48.341Z,17.63
2023-03-18T17:31:05.052Z,17.10
2023-03-18T17:34:23.435Z,18.75
2023-03-18T17:37:39.505Z,19.68
2023-03-18T17:40:56.522Z,17.83
2023-03-18T17:44:31.446Z,15.58
2023-03-18T17:47:48.357Z,17.20
2023-03-18T17:51:07.986Z,16.75
2023-03-18T17:54:27.871Z,20.35
2023-03-18T17:57:44.610Z,25.53
2023-03-18T18:01:02.135Z,19.93
2023-03-18T18:04:25.548Z,14.23
2023-03-18T18:07:41.667Z,15.13
2023-03-18T18:11:00.120Z,14.95
2023-03-18T18:14:25.776Z,19.33
2023-03-18T18:17:42.234Z,23.00
2023-03-18T18:21:04.950Z,22.60
2023-03-18T18:24:28.429Z,20.13
2023-03-18T18:27:45.059Z,26.05
2023-03-18T18:31:03.713Z,26.55
2023-03-18T18:34:22.061Z,21.10
2023-03-18T18:37:40.927Z,24.20
2023-03-18T18:40:58.306Z,31.08
2023-03-18T18:44:19.874Z,28.03
2023-03-18T18:50:51.046Z,35.25
2023-03-18T18:54:09.195Z,37.43
2023-03-18T18:57:34.082Z,30.33
2023-03-18T19:00:51.262Z,32.80
2023-03-18T19:04:08.605Z,32.43
2023-03-18T19:07:27.282Z,29.83
2023-03-18T19:10:46.558Z,23.58
2023-03-18T19:14:11.259Z,31.10
2023-03-18T19:17:30.523Z,28.28
2023-03-18T19:20:49.038Z,30.45
2023-03-18T19:24:09.076Z,31.35
2023-03-18T19:27:32.354Z,28.95
2023-03-18T19:30:48.619Z,29.95
2023-03-18T19:34:08.221Z,25.43
2023-03-18T19:37:30.104Z,23.35
2023-03-18T19:40:49.562Z,30.03
2023-03-18T19:44:17.705Z,26.38
2023-03-18T19:47:36.803Z,24.03
2023-03-18T19:50:55.507Z,28.95
2023-03-18T19:54:36.331Z,29.13
2023-03-18T19:57:55.036Z,25.15
2023-03-18T20:01:11.368Z,25.30
2023-03-18T20:04:31.501Z,22.05
2023-03-18T20:07:48.155Z,25.68
2023-03-18T20:11:04.646Z,21.48
2023-03-18T20:14:35.750Z,20.85
2023-03-18T20:17:55.406Z,22.93
2023-03-18T20:21:14.451Z,26.35
2023-03-18T20:24:36.024Z,23.35
2023-03-18T20:27:54.328Z,22.93
2023-03-18T20:31:12.677Z,23.75
2023-03-18T20:34:29.783Z,23.23
2023-03-18T20:37:47.218Z,23.68
2023-03-18T20:41:06.309Z,28.58
2023-03-18T20:44:22.496Z,22.98
2023-03-18T20:47:39.305Z,27.30
2023-03-18T20:50:56.778Z,26.53
2023-03-18T20:54:23.958Z,26.65
2023-03-18T20:57:48.958Z,28.93
2023-03-18T21:01:06.845Z,32.68
2023-03-18T21:04:23.933Z,29.53
2023-03-18T21:07:41.425Z,32.43
2023-03-18T21:11:02.094Z,33.45
2023-03-18T21:14:23.510Z,28.90
2023-03-18T21:17:42.044Z,27.53
2023-03-18T21:20:58.670Z,28.13
2023-03-18T21:24:32.441Z,31.43
2023-03-18T21:27:48.971Z,35.98
2023-03-18T21:31:06.819Z,32.18
2023-03-18T21:34:28.586Z,34.78
2023-03-18T21:37:45.904Z,33.03
2023-03-18T21:41:05.478Z,29.43
2023-03-18T21:44:21.731Z,33.43
2023-03-18T21:47:37.933Z,33.40
2023-03-18T21:50:57.649Z,38.45
2023-03-18T21:54:24.915Z,46.63
2023-03-18T21:57:43.827Z,43.50
2023-03-18T22:01:06.064Z,42.18
2023-03-18T22:04:23.115Z,45.03
2023-03-18T22:07:40.133Z,42.93
2023-03-18T22:10:58.746Z,44.25
2023-03-18T22:14:16.810Z,50.00
2023-03-18T22:17:38.479Z,52.13
2023-03-18T22:20:56.157Z,48.25
2023-03-18T22:24:14.910Z,49.70
2023-03-18T22:27:33.970Z,51.67
2023-03-18T22:30:52.829Z,49.85
2023-03-18T22:34:09.371Z,48.03
2023-03-18T22:37:29.764Z,48.85
2023-03-18T22:40:47.697Z,48.10
2023-03-18T22:44:07.134Z,46.80
2023-03-18T22:47:26.675Z,45.40
2023-03-18T22:54:00.423Z,46.13
2023-03-18T22:57:23.666Z,49.60
2023-03-18T23:00:45.575Z,49.53
2023-03-18T23:04:01.683Z,51.50
2023-03-18T23:07:33.130Z,51.30
2023-03-18T23:10:50.571Z,54.28
2023-03-18T23:14:07.355Z,46.55
2023-03-18T23:17:27.488Z,51.08
2023-03-18T23:20:44.861Z,51.40
2023-03-18T23:24:01.578Z,59.63
2023-03-18T23:27:18.257Z,54.35
2023-03-18T23:30:34.640Z,54.33
2023-03-18T23:33:51.359Z,53.55
2023-03-18T23:37:07.936Z,51.13
2023-03-18T23:40:24.736Z,50.43
2023-03-18T23:43:41.132Z,47.05
2023-03-18T23:46:58.218Z,59.15
2023-03-18T23:50:17.824Z,55.85
2023-03-18T23:53:34.455Z,56.75
2023-03-18T23:56:51.491Z,54.63
